sensor_id;sensor_type;location;lat;lon;timestamp;pressure;altitude;pressure_sealevel;temperature;humidity
36828;BME280;22766;48.042;11.192;2023-03-26T00:01:13;94593.91;;;6.53;100.00
36828;BME280;22766;48.042;11.192;2023-03-26T00:03:42;94598.06;;;6.63;100.00
36828;BME280;22766;48.042;11.192;2023-03-26T00:06:14;94602.53;;;6.61;100.00
36828;BME280;22766;48.042;11.192;2023-03-26T00:08:43;94596.31;;;6.64;100.00
36828;BME280;22766;48.042;11.192;2023-03-26T00:11:13;94602.53;;;6.61;100.00
36828;BME280;22766;48.042;11.192;2023-03-26T00:13:40;94600.50;;;6.55;100.00
36828;BME280;22766;48.042;11.192;2023-03-26T00:16:10;94598.91;;;6.54;100.00
36828;BME280;22766;48.042;11.192;2023-03-26T00:18:40;94590.94;;;6.48;100.00
36828;BME280;22766;48.042;11.192;2023-03-26T00:21:12;94595.97;;;6.40;100.00
36828;BME280;22766;48.042;11.192;2023-03-26T00:23:38;94583.81;;;6.42;100.00
36828;BME280;22766;48.042;11.192;2023-03-26T00:26:06;94594.63;;;6.26;100.00
36828;BME280;22766;48.042;11.192;2023-03-26T00:28:37;94585.19;;;6.17;100.00
36828;BME280;22766;48.042;11.192;2023-03-26T00:31:08;94580.84;;;6.08;100.00
36828;BME280;22766;48.042;11.192;2023-03-26T00:33:36;94582.34;;;6.11;100.00
36828;BME280;22766;48.042;11.192;2023-03-26T00:36:06;94571.81;;;5.95;100.00
36828;BME280;22766;48.042;11.192;2023-03-26T00:38:36;94579.66;;;5.93;100.00
36828;BME280;22766;48.042;11.192;2023-03-26T00:41:07;94581.97;;;5.96;100.00
36828;BME280;22766;48.042;11.192;2023-03-26T00:43:44;94582.50;;;6.00;100.00
36828;BME280;22766;48.042;11.192;2023-03-26T00:46:15;94593.00;;;5.97;100.00
36828;BME280;22766;48.042;11.192;2023-03-26T00:48:44;94586.41;;;5.94;100.00
36828;BME280;22766;48.042;11.192;2023-03-26T00:51:13;94596.22;;;5.89;100.00
36828;BME280;22766;48.042;11.192;2023-03-26T00:53:43;94591.06;;;5.80;100.00
36828;BME280;22766;48.042;11.192;2023-03-26T00:56:11;94585.19;;;5.89;100.00
36828;BME280;22766;48.042;11.192;2023-03-26T00:58:38;94589.06;;;5.93;100.00
36828;BME280;22766;48.042;11.192;2023-03-26T01:01:08;94579.78;;;5.92;100.00
36828;BME280;22766;48.042;11.192;2023-03-26T01:03:36;94592.00;;;5.79;100.00
36828;BME280;22766;48.042;11.192;2023-03-26T01:06:07;94586.22;;;5.77;100.00
36828;BME280;22766;48.042;11.192;2023-03-26T01:08:45;94577.38;;;5.90;100.00
36828;BME280;22766;48.042;11.192;2023-03-26T01:11:41;94575.72;;;5.89;100.00
36828;BME280;22766;48.042;11.192;2023-03-26T01:21:50;94575.69;;;5.80;100.00
36828;BME280;22766;48.042;11.192;2023-03-26T01:24:17;94569.22;;;5.76;100.00
36828;BME280;22766;48.042;11.192;2023-03-26T01:29:51;94557.06;;;5.58;100.00
36828;BME280;22766;48.042;11.192;2023-03-26T01:40:33;94561.00;;;5.72;100.00
36828;BME280;22766;48.042;11.192;2023-03-26T01:45:55;94545.41;;;5.85;100.00
36828;BME280;22766;48.042;11.192;2023-03-26T01:48:29;94542.38;;;5.70;100.00
36828;BME280;22766;48.042;11.192;2023-03-26T01:50:57;94537.16;;;5.72;100.00
36828;BME280;22766;48.042;11.192;2023-03-26T01:53:24;94539.28;;;5.66;100.00
36828;BME280;22766;48.042;11.192;2023-03-26T01:56:05;94541.72;;;5.68;100.00
36828;BME280;22766;48.042;11.192;2023-03-26T02:01:26;94530.25;;;5.82;100.00
36828;BME280;22766;48.042;11.192;2023-03-26T02:07:07;94528.66;;;5.81;100.00
36828;BME280;22766;48.042;11.192;2023-03-26T02:09:41;94519.09;;;5.83;100.00
36828;BME280;22766;48.042;11.192;2023-03-26T02:12:13;94511.16;;;5.86;100.00
36828;BME280;22766;48.042;11.192;2023-03-26T02:14:41;94509.41;;;5.86;100.00
36828;BME280;22766;48.042;11.192;2023-03-26T02:17:09;94504.13;;;5.88;100.00
36828;BME280;22766;48.042;11.192;2023-03-26T02:19:37;94510.75;;;5.90;100.00
36828;BME280;22766;48.042;11.192;2023-03-26T02:22:11;94503.31;;;5.87;100.00
36828;BME280;22766;48.042;11.192;2023-03-26T02:24:43;94507.78;;;5.85;100.00
36828;BME280;22766;48.042;11.192;2023-03-26T02:27:11;94506.16;;;5.84;100.00
36828;BME280;22766;48.042;11.192;2023-03-26T02:29:39;94505.22;;;5.85;100.00
36828;BME280;22766;48.042;11.192;2023-03-26T02:32:10;94502.63;;;5.95;100.00
36828;BME280;22766;48.042;11.192;2023-03-26T02:34:40;94492.41;;;5.95;100.00
36828;BME280;22766;48.042;11.192;2023-03-26T02:37:08;94490.66;;;5.86;100.00
36828;BME280;22766;48.042;11.192;2023-03-26T02:39:37;94488.34;;;5.83;100.00
36828;BME280;22766;48.042;11.192;2023-03-26T02:42:15;94490.50;;;5.87;100.00
36828;BME280;22766;48.042;11.192;2023-03-26T02:44:46;94486.47;;;5.94;100.00
36828;BME280;22766;48.042;11.192;2023-03-26T02:47:16;94479.72;;;6.03;100.00
36828;BME280;22766;48.042;11.192;2023-03-26T02:50:12;94478.91;;;6.02;100.00
36828;BME280;22766;48.042;11.192;2023-03-26T02:52:57;94476.19;;;6.13;100.00
36828;BME280;22766;48.042;11.192;2023-03-26T02:55:25;94470.94;;;6.15;100.00
36828;BME280;22766;48.042;11.192;2023-03-26T02:57:55;94466.75;;;6.14;100.00
36828;BME280;22766;48.042;11.192;2023-03-26T03:00:28;94459.34;;;6.11;100.00
36828;BME280;22766;48.042;11.192;2023-03-26T03:03:24;94450.56;;;6.13;100.00
36828;BME280;22766;48.042;11.192;2023-03-26T03:05:57;94452.59;;;6.10;100.00
36828;BME280;22766;48.042;11.192;2023-03-26T03:08:38;94441.94;;;6.14;100.00
36828;BME280;22766;48.042;11.192;2023-03-26T03:11:23;94432.63;;;6.13;100.00
36828;BME280;22766;48.042;11.192;2023-03-26T03:13:51;94426.03;;;6.11;100.00
36828;BME280;22766;48.042;11.192;2023-03-26T03:16:24;94427.91;;;6.09;100.00
36828;BME280;22766;48.042;11.192;2023-03-26T03:18:52;94427.91;;;6.09;100.00
36828;BME280;22766;48.042;11.192;2023-03-26T03:21:35;94418.31;;;6.20;100.00
36828;BME280;22766;48.042;11.192;2023-03-26T03:24:02;94411.31;;;6.13;100.00
36828;BME280;22766;48.042;11.192;2023-03-26T03:26:33;94416.31;;;6.14;100.00
36828;BME280;22766;48.042;11.192;2023-03-26T03:29:12;94420.72;;;6.22;100.00
36828;BME280;22766;48.042;11.192;2023-03-26T03:31:39;94417.09;;;6.24;100.00
36828;BME280;22766;48.042;11.192;2023-03-26T03:34:17;94407.75;;;6.23;100.00
36828;BME280;22766;48.042;11.192;2023-03-26T03:36:49;94412.66;;;6.17;100.00
36828;BME280;22766;48.042;11.192;2023-03-26T03:39:36;94409.81;;;6.20;100.00
36828;BME280;22766;48.042;11.192;2023-03-26T03:42:03;94410.63;;;6.20;100.00
36828;BME280;22766;48.042;11.192;2023-03-26T03:44:30;94408.53;;;6.33;100.00
36828;BME280;22766;48.042;11.192;2023-03-26T03:46:57;94409.88;;;6.37;100.00
36828;BME280;22766;48.042;11.192;2023-03-26T03:49:24;94408.34;;;6.44;100.00
36828;BME280;22766;48.042;11.192;2023-03-26T03:51:51;94403.75;;;6.48;100.00
36828;BME280;22766;48.042;11.192;2023-03-26T03:54:25;94401.91;;;6.40;100.00
36828;BME280;22766;48.042;11.192;2023-03-26T03:57:04;94392.88;;;6.36;100.00
36828;BME280;22766;48.042;11.192;2023-03-26T03:59:49;94380.16;;;6.44;100.00
36828;BME280;22766;48.042;11.192;2023-03-26T04:02:16;94375.44;;;6.49;100.00
36828;BME280;22766;48.042;11.192;2023-03-26T04:04:56;94365.34;;;6.38;100.00
36828;BME280;22766;48.042;11.192;2023-03-26T04:07:24;94366.00;;;6.40;100.00
36828;BME280;22766;48.042;11.192;2023-03-26T04:10:15;94367.13;;;6.55;100.00
36828;BME280;22766;48.042;11.192;2023-03-26T04:13:00;94374.47;;;6.50;100.00
36828;BME280;22766;48.042;11.192;2023-03-26T04:15:53;94371.91;;;6.50;100.00
36828;BME280;22766;48.042;11.192;2023-03-26T04:18:22;94370.16;;;6.51;100.00
36828;BME280;22766;48.042;11.192;2023-03-26T04:20:48;94364.78;;;6.44;100.00
36828;BME280;22766;48.042;11.192;2023-03-26T04:23:23;94365.78;;;6.34;100.00
36828;BME280;22766;48.042;11.192;2023-03-26T04:25:57;94363.59;;;6.39;100.00
36828;BME280;22766;48.042;11.192;2023-03-26T04:28:52;94354.28;;;6.38;100.00
36828;BME280;22766;48.042;11.192;2023-03-26T04:31:25;94345.06;;;6.45;100.00
36828;BME280;22766;48.042;11.192;2023-03-26T04:34:08;94350.88;;;6.47;100.00
36828;BME280;22766;48.042;11.192;2023-03-26T04:37:16;94348.31;;;6.47;100.00
36828;BME280;22766;48.042;11.192;2023-03-26T04:39:59;94345.94;;;6.53;100.00
36828;BME280;22766;48.042;11.192;2023-03-26T04:42:34;94333.50;;;6.41;100.00
36828;BME280;22766;48.042;11.192;2023-03-26T04:45:16;94337.78;;;6.23;100.00
36828;BME280;22766;48.042;11.192;2023-03-26T04:47:53;94342.66;;;6.16;100.00
36828;BME280;22766;48.042;11.192;2023-03-26T04:50:21;94334.06;;;6.08;100.00
36828;BME280;22766;48.042;11.192;2023-03-26T04:52:48;94337.19;;;6.02;100.00
36828;BME280;22766;48.042;11.192;2023-03-26T04:56:00;94318.84;;;5.97;100.00
36828;BME280;22766;48.042;11.192;2023-03-26T04:59:04;94318.72;;;5.98;100.00
36828;BME280;22766;48.042;11.192;2023-03-26T05:01:36;94315.34;;;5.98;100.00
36828;BME280;22766;48.042;11.192;2023-03-26T05:04:04;94316.22;;;5.89;100.00
36828;BME280;22766;48.042;11.192;2023-03-26T05:06:32;94311.34;;;5.86;100.00
36828;BME280;22766;48.042;11.192;2023-03-26T05:09:04;94318.06;;;5.96;100.00
36828;BME280;22766;48.042;11.192;2023-03-26T05:11:54;94311.75;;;5.91;100.00
36828;BME280;22766;48.042;11.192;2023-03-26T05:14:21;94308.59;;;5.97;100.00
36828;BME280;22766;48.042;11.192;2023-03-26T05:16:49;94305.38;;;5.95;100.00
36828;BME280;22766;48.042;11.192;2023-03-26T05:19:19;94301.63;;;5.89;100.00
36828;BME280;22766;48.042;11.192;2023-03-26T05:21:46;94308.75;;;5.95;100.00
36828;BME280;22766;48.042;11.192;2023-03-26T05:24:12;94302.97;;;5.93;100.00
36828;BME280;22766;48.042;11.192;2023-03-26T05:26:39;94302.81;;;5.95;100.00
36828;BME280;22766;48.042;11.192;2023-03-26T05:29:06;94300.66;;;6.00;100.00
36828;BME280;22766;48.042;11.192;2023-03-26T05:31:38;94292.97;;;6.00;100.00
36828;BME280;22766;48.042;11.192;2023-03-26T05:34:05;94285.94;;;6.02;100.00
36828;BME280;22766;48.042;11.192;2023-03-26T05:36:32;94278.25;;;6.02;100.00
36828;BME280;22766;48.042;11.192;2023-03-26T05:39:06;94273.78;;;6.04;100.00
36828;BME280;22766;48.042;11.192;2023-03-26T05:41:54;94265.31;;;6.03;100.00
36828;BME280;22766;48.042;11.192;2023-03-26T05:44:27;94264.22;;;6.06;100.00
36828;BME280;22766;48.042;11.192;2023-03-26T05:46:54;94255.72;;;6.05;100.00
36828;BME280;22766;48.042;11.192;2023-03-26T05:49:24;94251.41;;;6.06;100.00
36828;BME280;22766;48.042;11.192;2023-03-26T05:51:52;94254.63;;;6.08;100.00
36828;BME280;22766;48.042;11.192;2023-03-26T05:54:33;94261.88;;;6.12;100.00
36828;BME280;22766;48.042;11.192;2023-03-26T05:57:23;94254.19;;;6.12;100.00
36828;BME280;22766;48.042;11.192;2023-03-26T06:00:12;94243.66;;;6.15;100.00
36828;BME280;22766;48.042;11.192;2023-03-26T06:02:43;94242.53;;;6.18;100.00
36828;BME280;22766;48.042;11.192;2023-03-26T06:05:31;94252.53;;;6.21;100.00
36828;BME280;22766;48.042;11.192;2023-03-26T06:08:26;94255.47;;;6.26;100.00
36828;BME280;22766;48.042;11.192;2023-03-26T06:11:00;94249.16;;;6.20;100.00
36828;BME280;22766;48.042;11.192;2023-03-26T06:13:31;94239.84;;;6.19;100.00
36828;BME280;22766;48.042;11.192;2023-03-26T06:15:58;94245.50;;;6.23;100.00
36828;BME280;22766;48.042;11.192;2023-03-26T06:18:34;94246.69;;;6.28;100.00
36828;BME280;22766;48.042;11.192;2023-03-26T06:21:10;94244.63;;;6.32;100.00
36828;BME280;22766;48.042;11.192;2023-03-26T06:23:47;94243.97;;;6.30;100.00
36828;BME280;22766;48.042;11.192;2023-03-26T06:26:46;94249.03;;;6.39;100.00
36828;BME280;22766;48.042;11.192;2023-03-26T06:29:41;94235.75;;;6.26;100.00
36828;BME280;22766;48.042;11.192;2023-03-26T06:32:24;94233.25;;;6.17;100.00
36828;BME280;22766;48.042;11.192;2023-03-26T06:34:55;94232.81;;;6.04;100.00
36828;BME280;22766;48.042;11.192;2023-03-26T06:37:22;94234.03;;;6.00;100.00
36828;BME280;22766;48.042;11.192;2023-03-26T06:39:55;94237.97;;;5.94;100.00
36828;BME280;22766;48.042;11.192;2023-03-26T06:42:40;94233.38;;;5.98;100.00
36828;BME280;22766;48.042;11.192;2023-03-26T06:45:49;94220.19;;;6.10;100.00
36828;BME280;22766;48.042;11.192;2023-03-26T06:48:52;94217.28;;;6.05;100.00
36828;BME280;22766;48.042;11.192;2023-03-26T06:51:18;94225.03;;;5.96;100.00
36828;BME280;22766;48.042;11.192;2023-03-26T06:54:04;94221.94;;;5.92;100.00
36828;BME280;22766;48.042;11.192;2023-03-26T06:56:49;94214.97;;;5.85;100.00
36828;BME280;22766;48.042;11.192;2023-03-26T06:59:27;94206.75;;;5.81;100.00
36828;BME280;22766;48.042;11.192;2023-03-26T07:02:12;94202.56;;;5.80;100.00
36828;BME280;22766;48.042;11.192;2023-03-26T07:04:57;94193.47;;;5.95;100.00
36828;BME280;22766;48.042;11.192;2023-03-26T07:07:43;94188.34;;;5.95;100.00
36828;BME280;22766;48.042;11.192;2023-03-26T07:10:31;94175.16;;;5.90;100.00
36828;BME280;22766;48.042;11.192;2023-03-26T07:13:15;94163.03;;;5.92;100.00
36828;BME280;22766;48.042;11.192;2023-03-26T07:15:42;94158.34;;;6.05;100.00
36828;BME280;22766;48.042;11.192;2023-03-26T07:18:08;94144.88;;;6.03;100.00
36828;BME280;22766;48.042;11.192;2023-03-26T07:20:37;94127.09;;;6.02;100.00
36828;BME280;22766;48.042;11.192;2023-03-26T07:23:04;94127.09;;;6.02;100.00
36828;BME280;22766;48.042;11.192;2023-03-26T07:25:35;94118.44;;;6.03;100.00
36828;BME280;22766;48.042;11.192;2023-03-26T07:31:29;94121.75;;;6.13;100.00
36828;BME280;22766;48.042;11.192;2023-03-26T07:34:55;94105.41;;;6.14;100.00
36828;BME280;22766;48.042;11.192;2023-03-26T07:43:47;94079.41;;;6.26;100.00
36828;BME280;22766;48.042;11.192;2023-03-26T07:46:48;94070.22;;;6.41;100.00
36828;BME280;22766;48.042;11.192;2023-03-26T07:49:36;94072.41;;;6.54;100.00
36828;BME280;22766;48.042;11.192;2023-03-26T07:52:24;94062.84;;;6.64;100.00
36828;BME280;22766;48.042;11.192;2023-03-26T07:54:52;94057.50;;;6.57;100.00
36828;BME280;22766;48.042;11.192;2023-03-26T08:00:40;94043.09;;;6.56;100.00
36828;BME280;22766;48.042;11.192;2023-03-26T08:03:15;94043.03;;;6.48;100.00
36828;BME280;22766;48.042;11.192;2023-03-26T08:09:01;94047.00;;;6.43;100.00
36828;BME280;22766;48.042;11.192;2023-03-26T08:17:35;94060.06;;;6.57;100.00
36828;BME280;22766;48.042;11.192;2023-03-26T08:22:48;94066.88;;;6.67;100.00
36828;BME280;22766;48.042;11.192;2023-03-26T08:29:03;94068.63;;;6.66;100.00
36828;BME280;22766;48.042;11.192;2023-03-26T08:31:27;94053.78;;;6.78;100.00
36828;BME280;22766;48.042;11.192;2023-03-26T08:33:58;94056.09;;;6.89;100.00
36828;BME280;22766;48.042;11.192;2023-03-26T08:36:25;94069.41;;;6.92;100.00
36828;BME280;22766;48.042;11.192;2023-03-26T08:38:53;94064.88;;;6.86;100.00
36828;BME280;22766;48.042;11.192;2023-03-26T09:04:31;94017.72;;;6.45;100.00
36828;BME280;22766;48.042;11.192;2023-03-26T09:27:39;94017.16;;;6.34;100.00
36828;BME280;22766;48.042;11.192;2023-03-26T09:33:27;94024.81;;;6.51;100.00
36828;BME280;22766;48.042;11.192;2023-03-26T09:41:36;93993.66;;;6.46;100.00
36828;BME280;22766;48.042;11.192;2023-03-26T09:52:16;93997.53;;;6.76;100.00
36828;BME280;22766;48.042;11.192;2023-03-26T09:58:07;93977.50;;;6.80;100.00
36828;BME280;22766;48.042;11.192;2023-03-26T10:03:45;93963.94;;;6.61;100.00
36828;BME280;22766;48.042;11.192;2023-03-26T10:08:57;93977.06;;;6.58;100.00
36828;BME280;22766;48.042;11.192;2023-03-26T10:36:26;93994.16;;;5.99;100.00
36828;BME280;22766;48.042;11.192;2023-03-26T10:39:35;93991.75;;;5.97;100.00
36828;BME280;22766;48.042;11.192;2023-03-26T10:45:34;93971.72;;;6.18;100.00
36828;BME280;22766;48.042;11.192;2023-03-26T10:50:51;93980.00;;;6.12;100.00
36828;BME280;22766;48.042;11.192;2023-03-26T10:56:31;93963.47;;;6.32;100.00
36828;BME280;22766;48.042;11.192;2023-03-26T10:59:07;93962.94;;;6.29;100.00
36828;BME280;22766;48.042;11.192;2023-03-26T11:04:20;93974.06;;;6.37;100.00
36828;BME280;22766;48.042;11.192;2023-03-26T11:09:56;93994.41;;;6.65;100.00
36828;BME280;22766;48.042;11.192;2023-03-26T11:12:34;93989.09;;;6.58;100.00
36828;BME280;22766;48.042;11.192;2023-03-26T11:18:07;93990.78;;;5.81;100.00
36828;BME280;22766;48.042;11.192;2023-03-26T11:32:11;93977.88;;;5.47;100.00
36828;BME280;22766;48.042;11.192;2023-03-26T11:34:44;93984.81;;;5.54;100.00
36828;BME280;22766;48.042;11.192;2023-03-26T11:37:17;93971.53;;;5.77;100.00
36828;BME280;22766;48.042;11.192;2023-03-26T11:39:50;93968.28;;;5.84;100.00
36828;BME280;22766;48.042;11.192;2023-03-26T11:42:23;93985.09;;;5.87;100.00
36828;BME280;22766;48.042;11.192;2023-03-26T11:44:54;93989.06;;;6.24;100.00
36828;BME280;22766;48.042;11.192;2023-03-26T11:47:25;93995.13;;;6.23;100.00
36828;BME280;22766;48.042;11.192;2023-03-26T11:49:58;93972.53;;;6.19;100.00
36828;BME280;22766;48.042;11.192;2023-03-26T11:52:26;93957.81;;;6.21;100.00
36828;BME280;22766;48.042;11.192;2023-03-26T11:54:53;93947.34;;;6.40;100.00
36828;BME280;22766;48.042;11.192;2023-03-26T11:57:30;93931.91;;;6.66;100.00
36828;BME280;22766;48.042;11.192;2023-03-26T12:00:06;93932.81;;;6.98;100.00
36828;BME280;22766;48.042;11.192;2023-03-26T12:02:43;93936.03;;;7.16;100.00
36828;BME280;22766;48.042;11.192;2023-03-26T12:07:57;93939.03;;;7.62;100.00
36828;BME280;22766;48.042;11.192;2023-03-26T12:10:28;93936.78;;;7.75;100.00
36828;BME280;22766;48.042;11.192;2023-03-26T12:13:00;93937.56;;;7.51;100.00
36828;BME280;22766;48.042;11.192;2023-03-26T12:15:28;93928.53;;;7.39;100.00
36828;BME280;22766;48.042;11.192;2023-03-26T12:17:58;93929.84;;;7.59;100.00
36828;BME280;22766;48.042;11.192;2023-03-26T12:20:42;93936.75;;;7.67;100.00
36828;BME280;22766;48.042;11.192;2023-03-26T12:23:33;93929.22;;;7.57;100.00
36828;BME280;22766;48.042;11.192;2023-03-26T12:26:14;93926.00;;;7.47;100.00
36828;BME280;22766;48.042;11.192;2023-03-26T12:28:49;93919.41;;;7.61;100.00
36828;BME280;22766;48.042;11.192;2023-03-26T12:31:17;93916.84;;;7.61;100.00
36828;BME280;22766;48.042;11.192;2023-03-26T12:34:15;93918.44;;;7.70;100.00
36828;BME280;22766;48.042;11.192;2023-03-26T12:36:53;93917.81;;;7.68;100.00
36828;BME280;22766;48.042;11.192;2023-03-26T12:42:30;93913.78;;;7.73;100.00
36828;BME280;22766;48.042;11.192;2023-03-26T12:45:38;93905.59;;;7.94;100.00
36828;BME280;22766;48.042;11.192;2023-03-26T12:48:08;93891.75;;;8.03;100.00
36828;BME280;22766;48.042;11.192;2023-03-26T12:54:10;93897.38;;;7.90;100.00
36828;BME280;22766;48.042;11.192;2023-03-26T12:56:44;93884.75;;;7.81;100.00
36828;BME280;22766;48.042;11.192;2023-03-26T13:02:50;93891.31;;;7.91;100.00
36828;BME280;22766;48.042;11.192;2023-03-26T13:11:10;93883.44;;;7.85;100.00
36828;BME280;22766;48.042;11.192;2023-03-26T13:24:30;93882.59;;;8.08;100.00
36828;BME280;22766;48.042;11.192;2023-03-26T13:29:53;93892.88;;;8.00;100.00
36828;BME280;22766;48.042;11.192;2023-03-26T13:32:32;93892.69;;;8.18;100.00
36828;BME280;22766;48.042;11.192;2023-03-26T13:38:09;93884.88;;;7.95;100.00
36828;BME280;22766;48.042;11.192;2023-03-26T13:54:06;93851.13;;;7.90;100.00
36828;BME280;22766;48.042;11.192;2023-03-26T13:56:41;93856.13;;;7.92;100.00
36828;BME280;22766;48.042;11.192;2023-03-26T14:02:01;93851.09;;;8.06;100.00
36828;BME280;22766;48.042;11.192;2023-03-26T14:04:38;93836.81;;;8.04;100.00
36828;BME280;22766;48.042;11.192;2023-03-26T14:07:15;93828.47;;;8.02;100.00
36828;BME280;22766;48.042;11.192;2023-03-26T14:09:52;93823.13;;;8.11;100.00
36828;BME280;22766;48.042;11.192;2023-03-26T14:15:30;93823.19;;;8.03;100.00
36828;BME280;22766;48.042;11.192;2023-03-26T14:18:21;93814.16;;;8.07;100.00
36828;BME280;22766;48.042;11.192;2023-03-26T14:21:34;93819.25;;;8.15;100.00
36828;BME280;22766;48.042;11.192;2023-03-26T14:29:43;93780.16;;;8.36;100.00
36828;BME280;22766;48.042;11.192;2023-03-26T14:44:25;93778.66;;;8.11;100.00
36828;BME280;22766;48.042;11.192;2023-03-26T14:47:18;93778.13;;;8.15;100.00
36828;BME280;22766;48.042;11.192;2023-03-26T14:52:50;93785.84;;;8.15;100.00
36828;BME280;22766;48.042;11.192;2023-03-26T14:55:33;93790.34;;;8.13;100.00
36828;BME280;22766;48.042;11.192;2023-03-26T15:06:37;93781.03;;;8.20;100.00
36828;BME280;22766;48.042;11.192;2023-03-26T15:40:39;93843.81;;;5.99;100.00
36828;BME280;22766;48.042;11.192;2023-03-26T15:43:16;93834.16;;;5.67;100.00
36828;BME280;22766;48.042;11.192;2023-03-26T15:48:33;93841.56;;;5.27;100.00
36828;BME280;22766;48.042;11.192;2023-03-26T15:51:13;93816.22;;;5.16;100.00
36828;BME280;22766;48.042;11.192;2023-03-26T15:53:54;93799.09;;;5.17;100.00
36828;BME280;22766;48.042;11.192;2023-03-26T16:04:49;93786.16;;;5.95;100.00
36828;BME280;22766;48.042;11.192;2023-03-26T16:13:22;93779.19;;;6.21;100.00
36828;BME280;22766;48.042;11.192;2023-03-26T16:21:24;93767.22;;;6.30;100.00
36828;BME280;22766;48.042;11.192;2023-03-26T16:51:34;93776.31;;;5.57;100.00
36828;BME280;22766;48.042;11.192;2023-03-26T16:56:56;93751.59;;;5.65;100.00
36828;BME280;22766;48.042;11.192;2023-03-26T16:59:50;93764.66;;;5.62;100.00
36828;BME280;22766;48.042;11.192;2023-03-26T17:16:33;93789.84;;;5.67;100.00
36828;BME280;22766;48.042;11.192;2023-03-26T17:27:54;93827.69;;;5.81;100.00
36828;BME280;22766;48.042;11.192;2023-03-26T17:33:06;93871.84;;;6.01;100.00
36828;BME280;22766;48.042;11.192;2023-03-26T17:40:45;93878.91;;;5.38;100.00
36828;BME280;22766;48.042;11.192;2023-03-26T17:46:30;93877.16;;;4.68;100.00
36828;BME280;22766;48.042;11.192;2023-03-26T17:49:07;93861.38;;;4.55;100.00
36828;BME280;22766;48.042;11.192;2023-03-26T17:51:53;93869.50;;;4.41;100.00
36828;BME280;22766;48.042;11.192;2023-03-26T17:54:37;93866.72;;;4.07;100.00
36828;BME280;22766;48.042;11.192;2023-03-26T17:57:12;93856.16;;;3.93;100.00
36828;BME280;22766;48.042;11.192;2023-03-26T17:59:42;93855.66;;;3.89;100.00
36828;BME280;22766;48.042;11.192;2023-03-26T18:02:22;93860.91;;;3.78;100.00
36828;BME280;22766;48.042;11.192;2023-03-26T18:04:54;93864.28;;;3.69;100.00
36828;BME280;22766;48.042;11.192;2023-03-26T18:13:21;93870.22;;;3.69;100.00
36828;BME280;22766;48.042;11.192;2023-03-26T18:19:20;93866.06;;;3.68;100.00
36828;BME280;22766;48.042;11.192;2023-03-26T18:21:50;93861.75;;;3.69;100.00
36828;BME280;22766;48.042;11.192;2023-03-26T18:24:32;93857.28;;;3.80;100.00
36828;BME280;22766;48.042;11.192;2023-03-26T18:27:06;93849.75;;;3.79;100.00
36828;BME280;22766;48.042;11.192;2023-03-26T18:32:29;93860.97;;;3.96;100.00
36828;BME280;22766;48.042;11.192;2023-03-26T18:35:12;93852.28;;;3.89;100.00
36828;BME280;22766;48.042;11.192;2023-03-26T18:37:39;93845.66;;;3.96;100.00
36828;BME280;22766;48.042;11.192;2023-03-26T18:40:13;93842.88;;;3.89;100.00
36828;BME280;22766;48.042;11.192;2023-03-26T18:42:56;93833.19;;;3.93;100.00
36828;BME280;22766;48.042;11.192;2023-03-26T18:45:45;93831.44;;;3.93;100.00
36828;BME280;22766;48.042;11.192;2023-03-26T18:48:21;93824.97;;;3.99;100.00
36828;BME280;22766;48.042;11.192;2023-03-26T18:50:55;93830.91;;;3.90;100.00
36828;BME280;22766;48.042;11.192;2023-03-26T18:53:24;93822.19;;;3.83;100.00
36828;BME280;22766;48.042;11.192;2023-03-26T18:55:56;93816.38;;;3.90;100.00
36828;BME280;22766;48.042;11.192;2023-03-26T18:58:26;93808.88;;;3.89;100.00
36828;BME280;22766;48.042;11.192;2023-03-26T19:00:56;93825.03;;;3.79;100.00
36828;BME280;22766;48.042;11.192;2023-03-26T19:03:26;93828.13;;;3.83;100.00
36828;BME280;22766;48.042;11.192;2023-03-26T19:05:55;93828.50;;;3.88;100.00
36828;BME280;22766;48.042;11.192;2023-03-26T19:08:23;93827.78;;;3.96;100.00
36828;BME280;22766;48.042;11.192;2023-03-26T19:10:51;93844.59;;;3.98;100.00
36828;BME280;22766;48.042;11.192;2023-03-26T19:13:20;93833.66;;;4.06;100.00
36828;BME280;22766;48.042;11.192;2023-03-26T19:15:50;93834.94;;;4.19;100.00
36828;BME280;22766;48.042;11.192;2023-03-26T19:18:20;93831.25;;;4.04;100.00
36828;BME280;22766;48.042;11.192;2023-03-26T19:20:52;93820.22;;;4.04;100.00
36828;BME280;22766;48.042;11.192;2023-03-26T19:23:24;93819.09;;;3.89;100.00
36828;BME280;22766;48.042;11.192;2023-03-26T19:25:54;93826.41;;;4.01;100.00
36828;BME280;22766;48.042;11.192;2023-03-26T19:28:24;93826.06;;;4.23;100.00
36828;BME280;22766;48.042;11.192;2023-03-26T19:30:55;93828.88;;;4.20;100.00
36828;BME280;22766;48.042;11.192;2023-03-26T19:33:32;93833.72;;;4.23;100.00
36828;BME280;22766;48.042;11.192;2023-03-26T19:36:11;93832.28;;;4.38;100.00
36828;BME280;22766;48.042;11.192;2023-03-26T19:38:53;93844.25;;;4.38;100.00
36828;BME280;22766;48.042;11.192;2023-03-26T19:41:23;93847.56;;;4.48;100.00
36828;BME280;22766;48.042;11.192;2023-03-26T19:43:53;93845.13;;;4.46;100.00
36828;BME280;22766;48.042;11.192;2023-03-26T19:46:22;93839.38;;;4.44;100.00
36828;BME280;22766;48.042;11.192;2023-03-26T19:48:51;93818.94;;;4.62;100.00
36828;BME280;22766;48.042;11.192;2023-03-26T19:51:35;93826.97;;;4.85;100.00
36828;BME280;22766;48.042;11.192;2023-03-26T19:54:12;93819.50;;;4.56;100.00
36828;BME280;22766;48.042;11.192;2023-03-26T19:56:41;93822.38;;;4.70;100.00
36828;BME280;22766;48.042;11.192;2023-03-26T19:59:08;93830.88;;;4.71;100.00
36828;BME280;22766;48.042;11.192;2023-03-26T20:01:35;93834.84;;;4.56;100.00
36828;BME280;22766;48.042;11.192;2023-03-26T20:04:04;93840.41;;;4.51;100.00
36828;BME280;22766;48.042;11.192;2023-03-26T20:06:31;93830.38;;;4.58;100.00